sensor_id;sensor_type;location;lat;lon;timestamp;P1;durP1;ratioP1;P2;durP2;ratioP2
38455;SDS011;24237;50.106;20.014;2022-09-09T00:01:59;15.68;;;12.88;;
38455;SDS011;24237;50.106;20.014;2022-09-09T00:09:46;16.90;;;13.68;;
38455;SDS011;24237;50.106;20.014;2022-09-09T00:12:34;17.83;;;13.60;;
38455;SDS011;24237;50.106;20.014;2022-09-09T00:15:11;17.23;;;14.05;;
38455;SDS011;24237;50.106;20.014;2022-09-09T00:20:37;16.50;;;12.40;;
38455;SDS011;24237;50.106;20.014;2022-09-09T00:23:24;15.55;;;12.60;;
38455;SDS011;24237;50.106;20.014;2022-09-09T00:26:01;17.75;;;13.05;;
38455;SDS011;24237;50.106;20.014;2022-09-09T00:28:56;19.38;;;12.95;;
38455;SDS011;24237;50.106;20.014;2022-09-09T00:31:38;16.20;;;13.00;;
38455;SDS011;24237;50.106;20.014;2022-09-09T00:36:42;16.85;;;12.23;;
38455;SDS011;24237;50.106;20.014;2022-09-09T00:42:46;14.07;;;10.63;;
38455;SDS011;24237;50.106;20.014;2022-09-09T00:48:18;17.15;;;11.32;;
38455;SDS011;24237;50.106;20.014;2022-09-09T00:50:57;14.65;;;10.88;;
38455;SDS011;24237;50.106;20.014;2022-09-09T00:56:35;15.75;;;12.27;;
38455;SDS011;24237;50.106;20.014;2022-09-09T00:59:24;14.82;;;10.88;;
38455;SDS011;24237;50.106;20.014;2022-09-09T01:02:01;15.15;;;11.27;;
38455;SDS011;24237;50.106;20.014;2022-09-09T01:04:34;13.60;;;10.93;;
38455;SDS011;24237;50.106;20.014;2022-09-09T01:07:11;15.40;;;10.48;;
38455;SDS011;24237;50.106;20.014;2022-09-09T01:09:56;16.90;;;11.00;;
38455;SDS011;24237;50.106;20.014;2022-09-09T01:12:24;15.02;;;11.13;;
38455;SDS011;24237;50.106;20.014;2022-09-09T01:14:58;13.90;;;11.23;;
38455;SDS011;24237;50.106;20.014;2022-09-09T01:17:35;16.40;;;11.77;;
38455;SDS011;24237;50.106;20.014;2022-09-09T01:20:20;18.65;;;11.95;;
38455;SDS011;24237;50.106;20.014;2022-09-09T01:28:39;20.02;;;12.55;;
38455;SDS011;24237;50.106;20.014;2022-09-09T01:31:06;16.48;;;12.10;;
38455;SDS011;24237;50.106;20.014;2022-09-09T01:33:36;14.75;;;12.05;;
38455;SDS011;24237;50.106;20.014;2022-09-09T01:36:04;18.48;;;13.45;;
38455;SDS011;24237;50.106;20.014;2022-09-09T01:38:36;14.23;;;11.55;;
38455;SDS011;24237;50.106;20.014;2022-09-09T01:41:02;17.35;;;12.18;;
38455;SDS011;24237;50.106;20.014;2022-09-09T01:43:31;16.85;;;12.82;;
38455;SDS011;24237;50.106;20.014;2022-09-09T01:45:59;18.27;;;13.68;;
38455;SDS011;24237;50.106;20.014;2022-09-09T01:48:26;17.83;;;13.60;;
38455;SDS011;24237;50.106;20.014;2022-09-09T01:50:53;17.42;;;13.05;;
38455;SDS011;24237;50.106;20.014;2022-09-09T01:53:19;18.00;;;12.18;;
38455;SDS011;24237;50.106;20.014;2022-09-09T02:01:35;17.05;;;13.10;;
38455;SDS011;24237;50.106;20.014;2022-09-09T02:04:23;18.52;;;12.60;;
38455;SDS011;24237;50.106;20.014;2022-09-09T02:06:54;20.85;;;12.00;;
38455;SDS011;24237;50.106;20.014;2022-09-09T02:09:30;16.75;;;12.18;;
38455;SDS011;24237;50.106;20.014;2022-09-09T02:11:57;17.55;;;11.90;;
38455;SDS011;24237;50.106;20.014;2022-09-09T02:14:32;16.13;;;11.40;;
38455;SDS011;24237;50.106;20.014;2022-09-09T02:17:13;14.52;;;11.02;;
38455;SDS011;24237;50.106;20.014;2022-09-09T02:19:54;17.80;;;11.38;;
38455;SDS011;24237;50.106;20.014;2022-09-09T02:22:33;24.10;;;13.30;;
38455;SDS011;24237;50.106;20.014;2022-09-09T02:25:05;14.35;;;11.98;;
38455;SDS011;24237;50.106;20.014;2022-09-09T02:27:33;16.08;;;12.10;;
38455;SDS011;24237;50.106;20.014;2022-09-09T02:30:03;17.13;;;11.38;;
38455;SDS011;24237;50.106;20.014;2022-09-09T02:32:29;19.25;;;12.20;;
38455;SDS011;24237;50.106;20.014;2022-09-09T02:37:56;13.93;;;11.65;;
38455;SDS011;24237;50.106;20.014;2022-09-09T02:40:26;19.55;;;12.35;;
38455;SDS011;24237;50.106;20.014;2022-09-09T02:42:54;26.73;;;15.15;;
38455;SDS011;24237;50.106;20.014;2022-09-09T02:45:22;16.73;;;12.90;;
38455;SDS011;24237;50.106;20.014;2022-09-09T02:47:53;16.13;;;12.38;;
38455;SDS011;24237;50.106;20.014;2022-09-09T02:50:56;17.92;;;13.68;;
38455;SDS011;24237;50.106;20.014;2022-09-09T02:53:42;21.05;;;13.30;;
38455;SDS011;24237;50.106;20.014;2022-09-09T02:56:16;17.40;;;12.80;;
38455;SDS011;24237;50.106;20.014;2022-09-09T02:58:45;17.48;;;13.35;;
38455;SDS011;24237;50.106;20.014;2022-09-09T03:01:12;23.40;;;14.75;;
38455;SDS011;24237;50.106;20.014;2022-09-09T03:03:38;19.23;;;12.43;;
38455;SDS011;24237;50.106;20.014;2022-09-09T03:06:04;17.50;;;12.65;;
38455;SDS011;24237;50.106;20.014;2022-09-09T03:08:37;20.05;;;14.18;;
38455;SDS011;24237;50.106;20.014;2022-09-09T03:11:02;19.13;;;14.90;;
38455;SDS011;24237;50.106;20.014;2022-09-09T03:13:28;20.48;;;14.40;;
38455;SDS011;24237;50.106;20.014;2022-09-09T03:15:54;20.00;;;15.20;;
38455;SDS011;24237;50.106;20.014;2022-09-09T03:18:20;22.35;;;15.82;;
38455;SDS011;24237;50.106;20.014;2022-09-09T03:20:45;22.35;;;16.48;;
38455;SDS011;24237;50.106;20.014;2022-09-09T03:23:13;20.25;;;15.57;;
38455;SDS011;24237;50.106;20.014;2022-09-09T03:25:48;22.10;;;15.35;;
38455;SDS011;24237;50.106;20.014;2022-09-09T03:28:14;23.83;;;16.50;;
38455;SDS011;24237;50.106;20.014;2022-09-09T03:30:40;22.70;;;16.35;;
38455;SDS011;24237;50.106;20.014;2022-09-09T03:33:06;21.95;;;16.20;;
38455;SDS011;24237;50.106;20.014;2022-09-09T03:35:31;23.80;;;16.23;;
38455;SDS011;24237;50.106;20.014;2022-09-09T03:37:57;22.17;;;17.05;;
38455;SDS011;24237;50.106;20.014;2022-09-09T03:40:25;24.38;;;17.55;;
38455;SDS011;24237;50.106;20.014;2022-09-09T03:42:51;22.50;;;16.33;;
38455;SDS011;24237;50.106;20.014;2022-09-09T03:45:16;26.25;;;18.02;;
38455;SDS011;24237;50.106;20.014;2022-09-09T03:47:48;24.30;;;17.98;;
38455;SDS011;24237;50.106;20.014;2022-09-09T03:50:14;25.58;;;18.65;;
38455;SDS011;24237;50.106;20.014;2022-09-09T03:52:40;22.73;;;17.80;;
38455;SDS011;24237;50.106;20.014;2022-09-09T03:55:07;24.38;;;17.95;;
38455;SDS011;24237;50.106;20.014;2022-09-09T03:57:33;24.00;;;17.67;;
38455;SDS011;24237;50.106;20.014;2022-09-09T04:00:07;20.25;;;16.50;;
38455;SDS011;24237;50.106;20.014;2022-09-09T04:02:33;25.08;;;18.52;;
38455;SDS011;24237;50.106;20.014;2022-09-09T04:04:59;27.63;;;18.48;;
38455;SDS011;24237;50.106;20.014;2022-09-09T04:07:26;25.67;;;18.23;;
38455;SDS011;24237;50.106;20.014;2022-09-09T04:09:53;22.38;;;17.48;;
38455;SDS011;24237;50.106;20.014;2022-09-09T04:12:22;24.08;;;18.35;;
38455;SDS011;24237;50.106;20.014;2022-09-09T04:14:47;23.60;;;17.58;;
38455;SDS011;24237;50.106;20.014;2022-09-09T04:17:13;25.23;;;18.20;;
38455;SDS011;24237;50.106;20.014;2022-09-09T04:19:39;21.83;;;16.58;;
38455;SDS011;24237;50.106;20.014;2022-09-09T04:22:07;23.98;;;17.27;;
38455;SDS011;24237;50.106;20.014;2022-09-09T04:24:32;25.83;;;17.40;;
38455;SDS011;24237;50.106;20.014;2022-09-09T04:26:58;22.17;;;17.23;;
38455;SDS011;24237;50.106;20.014;2022-09-09T04:29:33;24.05;;;16.95;;
38455;SDS011;24237;50.106;20.014;2022-09-09T04:32:01;23.40;;;16.33;;
38455;SDS011;24237;50.106;20.014;2022-09-09T04:34:30;21.98;;;16.85;;
38455;SDS011;24237;50.106;20.014;2022-09-09T04:37:03;23.98;;;15.73;;
38455;SDS011;24237;50.106;20.014;2022-09-09T04:39:29;21.13;;;15.57;;
38455;SDS011;24237;50.106;20.014;2022-09-09T04:41:54;24.08;;;15.95;;
38455;SDS011;24237;50.106;20.014;2022-09-09T04:44:26;17.17;;;15.13;;
38455;SDS011;24237;50.106;20.014;2022-09-09T04:46:52;20.45;;;15.98;;
38455;SDS011;24237;50.106;20.014;2022-09-09T04:49:20;22.10;;;17.48;;
38455;SDS011;24237;50.106;20.014;2022-09-09T04:51:48;22.80;;;16.77;;
38455;SDS011;24237;50.106;20.014;2022-09-09T04:54:14;20.55;;;16.48;;
38455;SDS011;24237;50.106;20.014;2022-09-09T04:56:40;20.58;;;15.93;;
38455;SDS011;24237;50.106;20.014;2022-09-09T04:59:07;21.08;;;17.67;;
38455;SDS011;24237;50.106;20.014;2022-09-09T05:01:35;22.95;;;17.27;;
38455;SDS011;24237;50.106;20.014;2022-09-09T05:04:01;25.00;;;18.02;;
38455;SDS011;24237;50.106;20.014;2022-09-09T05:06:30;21.00;;;17.85;;
38455;SDS011;24237;50.106;20.014;2022-09-09T05:08:56;24.38;;;17.42;;
38455;SDS011;24237;50.106;20.014;2022-09-09T05:11:26;20.33;;;17.43;;
38455;SDS011;24237;50.106;20.014;2022-09-09T05:13:57;22.20;;;17.45;;
38455;SDS011;24237;50.106;20.014;2022-09-09T05:16:22;19.83;;;17.13;;
38455;SDS011;24237;50.106;20.014;2022-09-09T05:18:48;20.48;;;16.98;;
38455;SDS011;24237;50.106;20.014;2022-09-09T05:21:15;22.25;;;16.33;;
38455;SDS011;24237;50.106;20.014;2022-09-09T05:23:42;21.02;;;17.10;;
38455;SDS011;24237;50.106;20.014;2022-09-09T05:26:13;27.02;;;17.33;;
38455;SDS011;24237;50.106;20.014;2022-09-09T05:28:44;24.15;;;16.55;;
38455;SDS011;24237;50.106;20.014;2022-09-09T05:31:10;27.60;;;17.50;;
38455;SDS011;24237;50.106;20.014;2022-09-09T05:36:06;26.97;;;17.40;;
38455;SDS011;24237;50.106;20.014;2022-09-09T05:38:33;26.13;;;16.30;;
38455;SDS011;24237;50.106;20.014;2022-09-09T05:41:00;22.67;;;16.17;;
38455;SDS011;24237;50.106;20.014;2022-09-09T05:43:27;24.33;;;17.23;;
38455;SDS011;24237;50.106;20.014;2022-09-09T05:46:01;25.20;;;16.88;;
38455;SDS011;24237;50.106;20.014;2022-09-09T05:48:50;22.40;;;17.02;;
38455;SDS011;24237;50.106;20.014;2022-09-09T05:51:20;20.85;;;16.25;;
38455;SDS011;24237;50.106;20.014;2022-09-09T05:53:54;26.10;;;18.40;;
38455;SDS011;24237;50.106;20.014;2022-09-09T05:56:23;27.30;;;20.45;;
38455;SDS011;24237;50.106;20.014;2022-09-09T05:58:50;27.35;;;21.58;;
38455;SDS011;24237;50.106;20.014;2022-09-09T06:01:21;34.28;;;22.60;;
38455;SDS011;24237;50.106;20.014;2022-09-09T06:03:49;29.50;;;20.60;;
38455;SDS011;24237;50.106;20.014;2022-09-09T06:06:17;28.77;;;20.30;;
38455;SDS011;24237;50.106;20.014;2022-09-09T06:08:55;33.25;;;22.63;;
38455;SDS011;24237;50.106;20.014;2022-09-09T06:11:25;33.30;;;23.15;;
38455;SDS011;24237;50.106;20.014;2022-09-09T06:14:01;32.90;;;22.55;;
38455;SDS011;24237;50.106;20.014;2022-09-09T06:16:28;32.78;;;23.05;;
38455;SDS011;24237;50.106;20.014;2022-09-09T06:18:55;36.03;;;21.67;;
38455;SDS011;24237;50.106;20.014;2022-09-09T06:21:53;28.77;;;21.60;;
38455;SDS011;24237;50.106;20.014;2022-09-09T06:24:19;36.75;;;19.65;;
38455;SDS011;24237;50.106;20.014;2022-09-09T06:26:45;27.00;;;19.13;;
38455;SDS011;24237;50.106;20.014;2022-09-09T06:29:11;31.02;;;19.52;;
38455;SDS011;24237;50.106;20.014;2022-09-09T06:31:42;29.10;;;21.50;;
38455;SDS011;24237;50.106;20.014;2022-09-09T06:34:08;37.60;;;21.98;;
38455;SDS011;24237;50.106;20.014;2022-09-09T06:36:35;32.88;;;21.67;;
38455;SDS011;24237;50.106;20.014;2022-09-09T06:39:02;33.20;;;23.85;;
38455;SDS011;24237;50.106;20.014;2022-09-09T06:41:28;31.83;;;20.88;;
38455;SDS011;24237;50.106;20.014;2022-09-09T06:46:22;32.78;;;20.92;;
38455;SDS011;24237;50.106;20.014;2022-09-09T06:48:52;33.80;;;20.27;;
38455;SDS011;24237;50.106;20.014;2022-09-09T06:53:47;22.98;;;16.70;;
38455;SDS011;24237;50.106;20.014;2022-09-09T06:59:06;24.30;;;15.88;;
38455;SDS011;24237;50.106;20.014;2022-09-09T07:01:34;20.42;;;15.13;;
38455;SDS011;24237;50.106;20.014;2022-09-09T07:04:11;23.48;;;15.18;;
38455;SDS011;24237;50.106;20.014;2022-09-09T07:06:40;28.83;;;17.33;;
38455;SDS011;24237;50.106;20.014;2022-09-09T07:09:12;23.70;;;17.15;;
38455;SDS011;24237;50.106;20.014;2022-09-09T07:11:42;25.38;;;17.70;;
38455;SDS011;24237;50.106;20.014;2022-09-09T07:14:10;25.33;;;15.85;;
38455;SDS011;24237;50.106;20.014;2022-09-09T07:16:39;28.70;;;18.48;;
38455;SDS011;24237;50.106;20.014;2022-09-09T07:19:05;31.23;;;17.37;;
38455;SDS011;24237;50.106;20.014;2022-09-09T07:21:33;23.35;;;15.32;;
38455;SDS011;24237;50.106;20.014;2022-09-09T07:23:59;19.08;;;14.65;;
38455;SDS011;24237;50.106;20.014;2022-09-09T07:26:26;23.67;;;15.82;;
38455;SDS011;24237;50.106;20.014;2022-09-09T07:28:54;31.92;;;15.90;;
38455;SDS011;24237;50.106;20.014;2022-09-09T07:31:30;26.20;;;15.30;;
38455;SDS011;24237;50.106;20.014;2022-09-09T07:34:00;25.08;;;13.82;;
38455;SDS011;24237;50.106;20.014;2022-09-09T07:36:33;24.65;;;14.77;;
38455;SDS011;24237;50.106;20.014;2022-09-09T07:39:05;22.67;;;14.02;;
38455;SDS011;24237;50.106;20.014;2022-09-09T07:44:04;23.30;;;16.08;;
38455;SDS011;24237;50.106;20.014;2022-09-09T07:46:31;25.45;;;16.73;;
38455;SDS011;24237;50.106;20.014;2022-09-09T07:48:57;31.02;;;16.85;;
38455;SDS011;24237;50.106;20.014;2022-09-09T07:51:24;26.77;;;16.98;;
38455;SDS011;24237;50.106;20.014;2022-09-09T07:53:56;25.73;;;15.13;;
38455;SDS011;24237;50.106;20.014;2022-09-09T07:56:27;39.20;;;16.05;;
38455;SDS011;24237;50.106;20.014;2022-09-09T07:58:54;28.97;;;15.30;;
38455;SDS011;24237;50.106;20.014;2022-09-09T08:04:02;25.15;;;12.00;;
38455;SDS011;24237;50.106;20.014;2022-09-09T08:06:37;16.27;;;10.52;;
38455;SDS011;24237;50.106;20.014;2022-09-09T08:09:05;13.68;;;9.05;;
38455;SDS011;24237;50.106;20.014;2022-09-09T08:11:31;16.33;;;10.10;;
38455;SDS011;24237;50.106;20.014;2022-09-09T08:14:01;16.38;;;9.40;;
38455;SDS011;24237;50.106;20.014;2022-09-09T08:16:28;15.68;;;8.88;;
38455;SDS011;24237;50.106;20.014;2022-09-09T08:18:56;17.80;;;8.00;;
38455;SDS011;24237;50.106;20.014;2022-09-09T08:21:26;16.20;;;7.95;;
38455;SDS011;24237;50.106;20.014;2022-09-09T08:23:56;16.42;;;8.25;;
38455;SDS011;24237;50.106;20.014;2022-09-09T08:26:28;13.85;;;6.97;;
38455;SDS011;24237;50.106;20.014;2022-09-09T08:28:59;8.65;;;6.55;;
38455;SDS011;24237;50.106;20.014;2022-09-09T08:31:26;13.85;;;6.95;;
38455;SDS011;24237;50.106;20.014;2022-09-09T08:33:59;13.70;;;8.70;;
38455;SDS011;24237;50.106;20.014;2022-09-09T08:36:28;10.60;;;6.15;;
38455;SDS011;24237;50.106;20.014;2022-09-09T08:39:10;10.40;;;6.18;;
38455;SDS011;24237;50.106;20.014;2022-09-09T08:50:35;10.32;;;4.53;;
38455;SDS011;24237;50.106;20.014;2022-09-09T08:55:59;7.95;;;3.88;;
38455;SDS011;24237;50.106;20.014;2022-09-09T09:01:36;7.88;;;4.10;;
38455;SDS011;24237;50.106;20.014;2022-09-09T09:13:13;12.00;;;4.07;;
38455;SDS011;24237;50.106;20.014;2022-09-09T09:15:58;9.82;;;3.47;;
38455;SDS011;24237;50.106;20.014;2022-09-09T09:18:44;6.95;;;3.22;;
38455;SDS011;24237;50.106;20.014;2022-09-09T09:21:16;6.03;;;3.55;;
38455;SDS011;24237;50.106;20.014;2022-09-09T09:23:59;6.50;;;2.95;;
38455;SDS011;24237;50.106;20.014;2022-09-09T09:29:14;8.00;;;3.15;;
38455;SDS011;24237;50.106;20.014;2022-09-09T09:32:15;17.92;;;3.63;;
38455;SDS011;24237;50.106;20.014;2022-09-09T09:34:54;9.52;;;3.00;;
38455;SDS011;24237;50.106;20.014;2022-09-09T09:37:28;10.60;;;2.67;;
38455;SDS011;24237;50.106;20.014;2022-09-09T09:39:56;5.00;;;2.50;;
38455;SDS011;24237;50.106;20.014;2022-09-09T09:42:34;7.05;;;3.33;;
38455;SDS011;24237;50.106;20.014;2022-09-09T09:48:10;6.80;;;2.22;;
38455;SDS011;24237;50.106;20.014;2022-09-09T09:50:52;14.25;;;3.00;;
38455;SDS011;24237;50.106;20.014;2022-09-09T09:53:33;24.77;;;2.72;;
38455;SDS011;24237;50.106;20.014;2022-09-09T09:58:38;3.20;;;2.10;;
38455;SDS011;24237;50.106;20.014;2022-09-09T10:01:22;6.15;;;2.00;;
38455;SDS011;24237;50.106;20.014;2022-09-09T10:04:00;5.80;;;2.20;;
38455;SDS011;24237;50.106;20.014;2022-09-09T10:06:56;4.63;;;2.42;;
38455;SDS011;24237;50.106;20.014;2022-09-09T10:15:35;4.40;;;1.83;;
38455;SDS011;24237;50.106;20.014;2022-09-09T10:24:02;7.57;;;1.77;;
38455;SDS011;24237;50.106;20.014;2022-09-09T10:29:20;1.38;;;1.27;;
38455;SDS011;24237;50.106;20.014;2022-09-09T10:37:19;3.17;;;2.15;;
38455;SDS011;24237;50.106;20.014;2022-09-09T10:40:11;5.70;;;2.25;;
38455;SDS011;24237;50.106;20.014;2022-09-09T10:43:20;5.73;;;2.00;;
38455;SDS011;24237;50.106;20.014;2022-09-09T10:46:16;3.90;;;1.67;;
38455;SDS011;24237;50.106;20.014;2022-09-09T10:52:14;5.07;;;1.70;;
38455;SDS011;24237;50.106;20.014;2022-09-09T10:54:59;4.55;;;1.70;;
38455;SDS011;24237;50.106;20.014;2022-09-09T10:57:57;1.63;;;1.30;;
38455;SDS011;24237;50.106;20.014;2022-09-09T11:00:49;1.90;;;1.52;;
38455;SDS011;24237;50.106;20.014;2022-09-09T11:03:20;2.88;;;1.42;;
38455;SDS011;24237;50.106;20.014;2022-09-09T11:05:55;8.68;;;2.03;;
38455;SDS011;24237;50.106;20.014;2022-09-09T11:08:29;8.60;;;1.77;;
38455;SDS011;24237;50.106;20.014;2022-09-09T11:11:07;10.80;;;2.97;;
38455;SDS011;24237;50.106;20.014;2022-09-09T11:19:52;2.83;;;1.30;;
38455;SDS011;24237;50.106;20.014;2022-09-09T11:22:34;3.63;;;1.60;;
38455;SDS011;24237;50.106;20.014;2022-09-09T11:25:40;3.75;;;1.40;;
38455;SDS011;24237;50.106;20.014;2022-09-09T11:40:34;4.03;;;1.83;;
38455;SDS011;24237;50.106;20.014;2022-09-09T11:43:03;4.57;;;1.50;;
38455;SDS011;24237;50.106;20.014;2022-09-09T11:45:40;13.65;;;1.88;;
38455;SDS011;24237;50.106;20.014;2022-09-09T11:51:35;12.48;;;2.05;;
38455;SDS011;24237;50.106;20.014;2022-09-09T11:57:24;15.90;;;2.10;;
38455;SDS011;24237;50.106;20.014;2022-09-09T12:00:03;2.28;;;1.48;;
38455;SDS011;24237;50.106;20.014;2022-09-09T12:02:47;2.53;;;1.33;;
38455;SDS011;24237;50.106;20.014;2022-09-09T12:05:19;4.72;;;1.77;;
38455;SDS011;24237;50.106;20.014;2022-09-09T12:07:55;6.20;;;2.10;;
38455;SDS011;24237;50.106;20.014;2022-09-09T12:10:27;3.92;;;1.30;;
38455;SDS011;24237;50.106;20.014;2022-09-09T12:15:57;4.18;;;2.05;;
38455;SDS011;24237;50.106;20.014;2022-09-09T12:24:57;2.35;;;1.40;;
38455;SDS011;24237;50.106;20.014;2022-09-09T12:27:40;4.88;;;1.55;;
38455;SDS011;24237;50.106;20.014;2022-09-09T12:30:14;4.82;;;1.50;;
38455;SDS011;24237;50.106;20.014;2022-09-09T12:32:41;5.63;;;1.88;;
38455;SDS011;24237;50.106;20.014;2022-09-09T12:43:00;1.65;;;1.15;;
38455;SDS011;24237;50.106;20.014;2022-09-09T12:45:33;7.82;;;2.05;;
38455;SDS011;24237;50.106;20.014;2022-09-09T12:48:02;5.45;;;1.42;;
38455;SDS011;24237;50.106;20.014;2022-09-09T12:50:44;6.68;;;1.60;;
38455;SDS011;24237;50.106;20.014;2022-09-09T12:53:35;6.30;;;1.63;;
38455;SDS011;24237;50.106;20.014;2022-09-09T12:56:06;10.93;;;2.42;;
38455;SDS011;24237;50.106;20.014;2022-09-09T12:58:53;4.97;;;1.70;;
38455;SDS011;24237;50.106;20.014;2022-09-09T13:01:22;9.02;;;1.40;;
38455;SDS011;24237;50.106;20.014;2022-09-09T13:03:54;13.18;;;1.83;;
38455;SDS011;24237;50.106;20.014;2022-09-09T13:06:30;19.43;;;2.43;;
38455;SDS011;24237;50.106;20.014;2022-09-09T13:09:02;6.95;;;1.67;;
38455;SDS011;24237;50.106;20.014;2022-09-09T13:14:05;10.52;;;1.90;;
38455;SDS011;24237;50.106;20.014;2022-09-09T13:16:33;67.47;;;3.70;;
38455;SDS011;24237;50.106;20.014;2022-09-09T13:19:00;23.50;;;2.25;;
38455;SDS011;24237;50.106;20.014;2022-09-09T13:21:43;16.77;;;1.95;;
38455;SDS011;24237;50.106;20.014;2022-09-09T13:26:59;9.32;;;1.58;;
38455;SDS011;24237;50.106;20.014;2022-09-09T13:29:29;13.88;;;2.13;;
38455;SDS011;24237;50.106;20.014;2022-09-09T13:32:15;7.85;;;1.48;;
38455;SDS011;24237;50.106;20.014;2022-09-09T13:34:52;2.33;;;1.00;;
38455;SDS011;24237;50.106;20.014;2022-09-09T13:37:31;2.15;;;1.35;;
38455;SDS011;24237;50.106;20.014;2022-09-09T13:40:16;10.73;;;1.77;;
38455;SDS011;24237;50.106;20.014;2022-09-09T13:42:46;5.45;;;1.50;;
38455;SDS011;24237;50.106;20.014;2022-09-09T13:45:18;12.60;;;1.83;;
38455;SDS011;24237;50.106;20.014;2022-09-09T13:47:50;17.70;;;3.53;;
38455;SDS011;24237;50.106;20.014;2022-09-09T13:52:58;1.80;;;1.23;;
38455;SDS011;24237;50.106;20.014;2022-09-09T13:55:27;11.45;;;1.30;;
38455;SDS011;24237;50.106;20.014;2022-09-09T13:57:57;6.07;;;1.42;;
38455;SDS011;24237;50.106;20.014;2022-09-09T14:00:25;15.85;;;2.15;;
38455;SDS011;24237;50.106;20.014;2022-09-09T14:02:53;10.15;;;1.63;;
38455;SDS011;24237;50.106;20.014;2022-09-09T14:05:20;8.55;;;1.65;;
38455;SDS011;24237;50.106;20.014;2022-09-09T14:07:57;12.05;;;2.90;;
38455;SDS011;24237;50.106;20.014;2022-09-09T14:10:31;7.22;;;1.95;;
38455;SDS011;24237;50.106;20.014;2022-09-09T14:12:56;5.90;;;1.13;;
38455;SDS011;24237;50.106;20.014;2022-09-09T14:15:43;1.88;;;1.63;;
38455;SDS011;24237;50.106;20.014;2022-09-09T14:18:13;14.15;;;1.73;;
38455;SDS011;24237;50.106;20.014;2022-09-09T14:20:42;11.20;;;1.83;;
38455;SDS011;24237;50.106;20.014;2022-09-09T14:23:09;8.80;;;1.45;;
38455;SDS011;24237;50.106;20.014;2022-09-09T14:29:03;6.13;;;1.50;;
38455;SDS011;24237;50.106;20.014;2022-09-09T14:31:32;1.50;;;1.30;;
38455;SDS011;24237;50.106;20.014;2022-09-09T14:33:57;9.82;;;1.55;;
38455;SDS011;24237;50.106;20.014;2022-09-09T14:36:23;5.13;;;1.60;;
38455;SDS011;24237;50.106;20.014;2022-09-09T14:38:52;13.48;;;1.73;;
38455;SDS011;24237;50.106;20.014;2022-09-09T14:41:18;4.93;;;1.50;;
38455;SDS011;24237;50.106;20.014;2022-09-09T14:43:51;10.25;;;1.60;;
38455;SDS011;24237;50.106;20.014;2022-09-09T14:46:17;1.42;;;1.08;;
38455;SDS011;24237;50.106;20.014;2022-09-09T14:48:45;3.35;;;1.50;;
38455;SDS011;24237;50.106;20.014;2022-09-09T14:51:23;9.38;;;1.35;;
38455;SDS011;24237;50.106;20.014;2022-09-09T14:53:53;6.72;;;1.45;;
38455;SDS011;24237;50.106;20.014;2022-09-09T14:56:21;2.28;;;1.30;;
38455;SDS011;24237;50.106;20.014;2022-09-09T14:58:56;8.48;;;1.55;;
38455;SDS011;24237;50.106;20.014;2022-09-09T15:01:23;9.00;;;1.80;;
38455;SDS011;24237;50.106;20.014;2022-09-09T15:07:52;2.22;;;1.15;;
38455;SDS011;24237;50.106;20.014;2022-09-09T15:10:45;12.02;;;1.58;;
38455;SDS011;24237;50.106;20.014;2022-09-09T15:13:24;3.17;;;1.40;;
38455;SDS011;24237;50.106;20.014;2022-09-09T15:16:13;2.88;;;1.20;;
38455;SDS011;24237;50.106;20.014;2022-09-09T15:18:53;7.38;;;1.13;;
38455;SDS011;24237;50.106;20.014;2022-09-09T15:25:10;1.90;;;0.88;;
38455;SDS011;24237;50.106;20.014;2022-09-09T15:36:59;3.55;;;1.80;;
38455;SDS011;24237;50.106;20.014;2022-09-09T15:39:51;3.10;;;1.90;;
38455;SDS011;24237;50.106;20.014;2022-09-09T15:42:30;6.45;;;1.95;;
38455;SDS011;24237;50.106;20.014;2022-09-09T15:44:58;5.32;;;2.53;;
38455;SDS011;24237;50.106;20.014;2022-09-09T15:47:36;6.20;;;2.42;;
38455;SDS011;24237;50.106;20.014;2022-09-09T15:50:10;3.33;;;2.10;;
38455;SDS011;24237;50.106;20.014;2022-09-09T15:53:22;2.83;;;2.10;;
38455;SDS011;24237;50.106;20.014;2022-09-09T15:56:10;7.38;;;2.95;;
38455;SDS011;24237;50.106;20.014;2022-09-09T15:58:54;6.20;;;2.27;;
38455;SDS011;24237;50.106;20.014;2022-09-09T16:04:22;6.70;;;2.10;;
38455;SDS011;24237;50.106;20.014;2022-09-09T16:13:14;10.88;;;2.67;;
38455;SDS011;24237;50.106;20.014;2022-09-09T16:15:54;6.65;;;3.00;;
38455;SDS011;24237;50.106;20.014;2022-09-09T16:18:24;3.42;;;2.17;;
38455;SDS011;24237;50.106;20.014;2022-09-09T16:20:53;8.05;;;2.40;;
38455;SDS011;24237;50.106;20.014;2022-09-09T16:23:22;5.97;;;2.58;;
38455;SDS011;24237;50.106;20.014;2022-09-09T16:25:55;7.65;;;2.53;;
38455;SDS011;24237;50.106;20.014;2022-09-09T16:28:21;5.20;;;2.55;;
38455;SDS011;24237;50.106;20.014;2022-09-09T16:31:13;2.90;;;2.35;;
38455;SDS011;24237;50.106;20.014;2022-09-09T16:44:48;10.25;;;2.90;;
38455;SDS011;24237;50.106;20.014;2022-09-09T16:47:15;5.10;;;2.78;;
38455;SDS011;24237;50.106;20.014;2022-09-09T16:49:40;5.32;;;2.80;;
38455;SDS011;24237;50.106;20.014;2022-09-09T16:52:06;6.93;;;2.83;;
38455;SDS011;24237;50.106;20.014;2022-09-09T16:54:32;5.25;;;3.13;;
38455;SDS011;24237;50.106;20.014;2022-09-09T16:57:04;8.35;;;3.20;;
38455;SDS011;24237;50.106;20.014;2022-09-09T16:59:31;7.97;;;3.42;;
38455;SDS011;24237;50.106;20.014;2022-09-09T17:01:57;5.75;;;3.60;;
38455;SDS011;24237;50.106;20.014;2022-09-09T17:04:25;7.90;;;3.40;;
38455;SDS011;24237;50.106;20.014;2022-09-09T17:06:55;9.98;;;3.78;;
38455;SDS011;24237;50.106;20.014;2022-09-09T17:09:22;8.18;;;3.83;;
38455;SDS011;24237;50.106;20.014;2022-09-09T17:11:48;11.45;;;4.45;;
38455;SDS011;24237;50.106;20.014;2022-09-09T17:14:18;11.95;;;4.70;;
38455;SDS011;24237;50.106;20.014;2022-09-09T17:16:45;10.00;;;4.80;;
38455;SDS011;24237;50.106;20.014;2022-09-09T17:19:11;17.33;;;5.00;;
38455;SDS011;24237;50.106;20.014;2022-09-09T17:21:38;10.30;;;5.00;;
38455;SDS011;24237;50.106;20.014;2022-09-09T17:24:04;10.35;;;5.03;;
38455;SDS011;24237;50.106;20.014;2022-09-09T17:26:31;10.15;;;5.15;;
38455;SDS011;24237;50.106;20.014;2022-09-09T17:29:17;10.68;;;5.38;;
38455;SDS011;24237;50.106;20.014;2022-09-09T17:31:43;15.45;;;6.00;;
38455;SDS011;24237;50.106;20.014;2022-09-09T17:34:09;9.43;;;5.72;;
38455;SDS011;24237;50.106;20.014;2022-09-09T17:36:35;10.05;;;5.60;;
38455;SDS011;24237;50.106;20.014;2022-09-09T17:39:02;10.10;;;5.50;;
38455;SDS011;24237;50.106;20.014;2022-09-09T17:41:34;15.40;;;5.70;;
38455;SDS011;24237;50.106;20.014;2022-09-09T17:44:04;10.40;;;5.40;;
38455;SDS011;24237;50.106;20.014;2022-09-09T17:46:35;11.23;;;5.95;;
38455;SDS011;24237;50.106;20.014;2022-09-09T17:49:15;9.68;;;4.80;;
38455;SDS011;24237;50.106;20.014;2022-09-09T17:51:42;9.18;;;4.63;;
38455;SDS011;24237;50.106;20.014;2022-09-09T17:54:12;9.40;;;4.28;;
38455;SDS011;24237;50.106;20.014;2022-09-09T17:56:50;8.13;;;3.80;;
38455;SDS011;24237;50.106;20.014;2022-09-09T17:59:17;9.35;;;4.22;;
38455;SDS011;24237;50.106;20.014;2022-09-09T18:01:44;6.60;;;4.30;;
38455;SDS011;24237;50.106;20.014;2022-09-09T18:04:26;7.93;;;3.70;;
38455;SDS011;24237;50.106;20.014;2022-09-09T18:07:02;6.03;;;3.97;;